Atlanta, MI

3:25 PM EDT on July 05, 2015 (GMT -0400)
Moon Lake | | Change Station
CLOSE
Current Station
Personal Weather Station
Location: Lewiston, MI
Elevation: 1240 ft
Nearby Weather Stations

Elev 1240 ft 44.84 °N, 84.26 °W | Updated 15 minutes ago

Clear
Clear
83.0 °F
Feels Like 83 °F
N
1.6
Wind Variable Wind from NW
Gusts 1.6 mph

Today
High -- | Low -- °F
--% Chance of Precip.
Yesterday
High -- | Low -- °F
Precip. -- in
5:56 AM 9:25 PM
Waning Gibbous, 82% visible
Pressure 30.07 in
Visibility 8.0 miles
Clouds Scattered Clouds 4900 ft
Heat Index 83 °F
Dew Point 60 °F
Humidity 46%
Rainfall 0.00 in
Snow Depth Not available.
UV 8 out of 12
Pollen 4.10 out of 12
Air Quality Not available.
Flu Activity Not available.
METAR KGLR 051853Z AUTO 19006KT 8SM SCT049 27/14 A3008 RMK AO2 SLP182 T02720139

More Conditions Fewer Conditions

Pressure 30.07 in
Visibility 8.0 miles
Clouds Scattered Clouds 4900 ft
Heat Index 83 °F
Dew Point 60 °F
Humidity 46%
Rainfall 0.00 in
Snow Depth Not available.
UV 8 out of 12
Pollen 4.10 out of 12
Air Quality Not available.
Flu Activity Not available.
METAR KGLR 051853Z AUTO 19006KT 8SM SCT049 27/14 A3008 RMK AO2 SLP182 T02720139

More Conditions Fewer Conditions

Nowcast | as of 3:00 PM EDT on July 5, 2015

At 4 PM...partly cloudy. Isolated showers. Temperature 83. South winds 7 mph. At 6 PM...partly cloudy. Temperature 83. South winds 6 mph. At 8 PM...mostly clear. Temperature 80. South winds 5 mph. At 10 PM...mostly clear. Temperature 74. South winds 6 mph.

×

10-Day Weather Forecast

×

Almanac

Astronomy

Jul. 05, 2015 Rise Set
Actual Time
Civil Twilight
Nautical Twilight
Astronomical Twilight
Moon
Length of Visible Light
Length of Day
Tomorrow will be .
, % of the Moon is Illuminated

Today's Extremes

State Highs State Lows

Community

WunderPhotos

Upload Photos

1,835,354 photos uploaded!

WunderBlogs® & News

Nearby

Air Quality

  Air Quality AQ Index Pollutant
Not available.

Snow Depth

Station Depth Elevation

Earthquake Activity

City Distance Mag. Time & Date
Minimum magnitude displayed is 2.5.

Coastal Water Temperatures

Place Temperature

Stations

Nearby Weather Stations

Station Location Temp. Windchill Dew Point Humidity Wind Precip. Elev Updated Type